Time,TemperatureF,DewpointF,PressureIn,WindDirection,WindDirectionDegrees,WindSpeedMPH,WindSpeedGustMPH,Humidity,HourlyPrecipIn,Conditions,Clouds,dailyrainin,SoftwareType,DateUTC
2015-05-05 00:02:00,65.0,61.0,30.19,SE,136,0.0,0.0,86,-99.99,,,-99.99,,2015-05-05 04:02:00,
2015-05-05 00:11:00,65.0,61.0,30.19,SE,136,0.0,0.0,87,-99.99,,,-99.99,,2015-05-05 04:11:00,
2015-05-05 00:31:00,65.0,61.0,30.19,SE,136,1.0,3.0,87,-99.99,,,-99.99,,2015-05-05 04:31:00,
2015-05-05 00:42:00,66.0,61.0,30.19,SE,137,0.0,2.0,85,-99.99,,,-99.99,,2015-05-05 04:42:00,
2015-05-05 01:11:00,66.0,62.0,30.19,SE,136,0.0,0.0,86,-99.99,,,-99.99,,2015-05-05 05:11:00,
2015-05-05 01:22:00,66.0,62.0,30.19,SE,136,0.0,0.0,86,-99.99,,,-99.99,,2015-05-05 05:22:00,
2015-05-05 01:32:00,66.0,62.0,30.19,SE,136,0.0,0.0,86,-99.99,,,-99.99,,2015-05-05 05:32:00,
2015-05-05 01:42:00,65.0,61.0,30.20,SE,134,0.0,0.0,86,-99.99,,,-99.99,,2015-05-05 05:42:00,
2015-05-05 01:52:00,65.0,61.0,30.20,SE,133,0.0,1.0,87,-99.99,,,-99.99,,2015-05-05 05:52:00,
2015-05-05 02:12:00,64.0,61.0,30.20,SE,133,0.0,3.0,89,-99.99,,,-99.99,,2015-05-05 06:12:00,
2015-05-05 02:22:00,64.0,61.0,30.20,SE,131,0.0,0.0,89,-99.99,,,-99.99,,2015-05-05 06:22:00,
2015-05-05 02:31:00,64.0,61.0,30.20,SE,131,0.0,0.0,89,-99.99,,,-99.99,,2015-05-05 06:31:00,
2015-05-05 02:42:00,63.0,60.0,30.20,SE,134,0.0,0.0,89,-99.99,,,-99.99,,2015-05-05 06:42:00,
2015-05-05 02:52:00,63.0,60.0,30.20,SE,134,0.0,0.0,90,-99.99,,,-99.99,,2015-05-05 06:52:00,
2015-05-05 03:11:00,62.0,59.0,30.20,SE,133,0.0,0.0,91,-99.99,,,-99.99,,2015-05-05 07:11:00,
2015-05-05 03:21:00,62.0,60.0,30.19,SE,133,0.0,0.0,92,-99.99,,,-99.99,,2015-05-05 07:21:00,
2015-05-05 03:42:00,62.0,60.0,30.19,SE,130,0.0,0.0,93,-99.99,,,-99.99,,2015-05-05 07:42:00,
2015-05-05 03:52:00,61.0,59.0,30.19,SE,131,0.0,0.0,94,-99.99,,,-99.99,,2015-05-05 07:52:00,
2015-05-05 04:11:00,61.0,59.0,30.19,SE,133,0.0,0.0,94,-99.99,,,-99.99,,2015-05-05 08:11:00,
2015-05-05 04:22:00,61.0,60.0,30.19,SE,133,0.0,0.0,95,-99.99,,,-99.99,,2015-05-05 08:22:00,
2015-05-05 04:42:00,61.0,61.0,30.19,SE,134,0.0,0.0,100,-99.99,,,-99.99,,2015-05-05 08:42:00,
2015-05-05 04:51:00,61.0,61.0,30.19,SE,136,0.0,0.0,100,-99.99,,,-99.99,,2015-05-05 08:51:00,
2015-05-05 05:11:00,61.0,61.0,30.20,SE,136,0.0,0.0,100,-99.99,,,-99.99,,2015-05-05 09:11:00,
2015-05-05 05:21:00,61.0,61.0,30.20,SE,136,0.0,0.0,100,-99.99,,,-99.99,,2015-05-05 09:21:00,
2015-05-05 05:41:00,61.0,60.0,30.20,SE,136,0.0,0.0,96,-99.99,,,-99.99,,2015-05-05 09:41:00,
2015-05-05 05:52:00,61.0,61.0,30.20,SE,134,0.0,0.0,100,-99.99,,,-99.99,,2015-05-05 09:52:00,
2015-05-05 06:02:00,61.0,61.0,30.20,SE,134,0.0,0.0,100,-99.99,,,-99.99,,2015-05-05 10:02:00,
2015-05-05 06:11:00,60.0,60.0,30.21,SE,133,0.0,0.0,100,-99.99,,,-99.99,,2015-05-05 10:11:00,
2015-05-05 06:21:00,60.0,59.0,30.21,SE,133,0.0,0.0,96,-99.99,,,-99.99,,2015-05-05 10:21:00,
2015-05-05 06:42:00,60.0,59.0,30.21,SE,131,0.0,0.0,96,-99.99,,,-99.99,,2015-05-05 10:42:00,
2015-05-05 06:52:00,59.0,58.0,30.21,SE,130,0.0,0.0,97,-99.99,,,-99.99,,2015-05-05 10:52:00,
2015-05-05 07:12:00,59.0,58.0,30.22,SE,134,0.0,0.0,97,-99.99,,,-99.99,,2015-05-05 11:12:00,
2015-05-05 07:22:00,59.0,58.0,30.22,SE,134,0.0,0.0,97,-99.99,,,-99.99,,2015-05-05 11:22:00,
2015-05-05 07:42:00,59.0,59.0,30.22,SE,134,0.0,0.0,100,-99.99,,,-99.99,,2015-05-05 11:42:00,
2015-05-05 07:52:00,59.0,58.0,30.22,SE,136,0.0,0.0,98,-99.99,,,-99.99,,2015-05-05 11:52:00,
2015-05-05 08:12:00,59.0,58.0,30.23,SE,137,0.0,0.0,98,-99.99,,,-99.99,,2015-05-05 12:12:00,
2015-05-05 08:22:00,59.0,58.0,30.23,SE,137,0.0,0.0,98,-99.99,,,-99.99,,2015-05-05 12:22:00,
2015-05-05 08:32:00,60.0,59.0,30.23,SE,137,0.0,0.0,98,-99.99,,,-99.99,,2015-05-05 12:32:00,
2015-05-05 08:42:00,61.0,61.0,30.24,East,93,0.0,0.0,99,-99.99,,,-99.99,,2015-05-05 12:42:00,
2015-05-05 09:12:00,64.0,63.0,30.23,SE,137,0.0,2.0,98,-99.99,,,-99.99,,2015-05-05 13:12:00,
2015-05-05 09:22:00,67.0,64.0,30.23,ESE,123,0.0,2.0,91,-99.99,,,-99.99,,2015-05-05 13:22:00,
2015-05-05 09:31:00,67.0,64.0,30.23,ESE,123,0.0,2.0,91,-99.99,,,-99.99,,2015-05-05 13:31:00,
2015-05-05 09:42:00,69.0,61.0,30.24,SSE,147,1.0,5.0,77,-99.99,,,-99.99,,2015-05-05 13:42:00,
2015-05-05 09:52:00,71.0,60.0,30.23,East,100,0.0,5.0,69,-99.99,,,-99.99,,2015-05-05 13:52:00,
2015-05-05 10:11:00,72.0,60.0,30.23,SE,137,0.0,2.0,66,-99.99,,,-99.99,,2015-05-05 14:11:00,
2015-05-05 10:21:00,73.0,59.0,30.24,ESE,103,0.0,7.0,62,-99.99,,,-99.99,,2015-05-05 14:21:00,
2015-05-05 10:41:00,74.0,58.0,30.24,SE,128,2.0,7.0,58,-99.99,,,-99.99,,2015-05-05 14:41:00,
2015-05-05 10:52:00,75.0,59.0,30.24,ESE,117,0.0,6.0,58,-99.99,,,-99.99,,2015-05-05 14:52:00,
2015-05-05 11:11:00,76.0,60.0,30.24,SE,141,0.0,6.0,57,-99.99,,,-99.99,,2015-05-05 15:11:00,
2015-05-05 11:21:00,76.0,60.0,30.24,SE,141,0.0,6.0,57,-99.99,,,-99.99,,2015-05-05 15:21:00,
2015-05-05 11:42:00,78.0,59.0,30.24,East,92,0.0,7.0,53,-99.99,,,-99.99,,2015-05-05 15:42:00,
2015-05-05 11:52:00,79.0,59.0,30.24,SE,143,1.0,5.0,51,-99.99,,,-99.99,,2015-05-05 15:52:00,
2015-05-05 12:12:00,79.0,58.0,30.24,SSE,151,3.0,7.0,49,-99.99,,,-99.99,,2015-05-05 16:12:00,
2015-05-05 12:21:00,80.0,57.0,30.23,SE,145,0.0,6.0,46,-99.99,,,-99.99,,2015-05-05 16:21:00,
2015-05-05 12:32:00,80.0,57.0,30.23,SE,145,0.0,6.0,46,-99.99,,,-99.99,,2015-05-05 16:32:00,
2015-05-05 12:42:00,81.0,58.0,30.23,SSE,151,0.0,7.0,45,-99.99,,,-99.99,,2015-05-05 16:42:00,
2015-05-05 12:52:00,82.0,56.0,30.22,SE,143,0.0,6.0,41,-99.99,,,-99.99,,2015-05-05 16:52:00,
2015-05-05 13:12:00,83.0,57.0,30.22,SSE,150,0.0,3.0,41,-99.99,,,-99.99,,2015-05-05 17:12:00,
2015-05-05 13:23:00,82.0,55.0,30.22,SE,138,0.0,5.0,40,-99.99,,,-99.99,,2015-05-05 17:23:00,
2015-05-05 13:42:00,83.0,54.0,30.22,South,175,2.0,3.0,37,-99.99,,,-99.99,,2015-05-05 17:42:00,
2015-05-05 13:52:00,83.0,55.0,30.22,SE,141,3.0,7.0,38,-99.99,,,-99.99,,2015-05-05 17:52:00,
2015-05-05 14:12:00,83.0,54.0,30.22,SE,133,0.0,11.0,37,-99.99,,,-99.99,,2015-05-05 18:12:00,
2015-05-05 14:22:00,84.0,56.0,30.21,SE,131,3.0,8.0,39,-99.99,,,-99.99,,2015-05-05 18:22:00,
2015-05-05 14:42:00,84.0,54.0,30.21,South,179,2.0,6.0,36,-99.99,,,-99.99,,2015-05-05 18:42:00,
2015-05-05 14:52:00,83.0,53.0,30.21,SE,127,2.0,5.0,36,-99.99,,,-99.99,,2015-05-05 18:52:00,
2015-05-05 15:12:00,83.0,55.0,30.21,SE,128,0.0,3.0,38,-99.99,,,-99.99,,2015-05-05 19:12:00,
2015-05-05 15:22:00,82.0,55.0,30.21,ESE,113,0.0,6.0,40,-99.99,,,-99.99,,2015-05-05 19:22:00,
2015-05-05 15:42:00,83.0,56.0,30.20,ESE,106,1.0,8.0,40,-99.99,,,-99.99,,2015-05-05 19:42:00,
2015-05-05 15:52:00,84.0,54.0,30.20,ESE,106,0.0,7.0,36,-99.99,,,-99.99,,2015-05-05 19:52:00,
2015-05-05 16:11:00,84.0,55.0,30.20,East,93,0.0,6.0,37,-99.99,,,-99.99,,2015-05-05 20:11:00,
2015-05-05 16:21:00,85.0,56.0,30.20,SE,141,0.0,5.0,37,-99.99,,,-99.99,,2015-05-05 20:21:00,
2015-05-05 16:42:00,84.0,56.0,30.19,SSW,200,2.0,5.0,38,-99.99,,,-99.99,,2015-05-05 20:42:00,
2015-05-05 16:52:00,82.0,53.0,30.20,SSW,202,0.0,4.0,37,-99.99,,,-99.99,,2015-05-05 20:52:00,
2015-05-05 17:12:00,83.0,53.0,30.19,SSW,200,2.0,3.0,36,-99.99,,,-99.99,,2015-05-05 21:12:00,
2015-05-05 17:21:00,83.0,55.0,30.19,SE,127,1.0,4.0,38,-99.99,,,-99.99,,2015-05-05 21:21:00,